sensor_id;sensor_type;location;lat;lon;timestamp;pressure;altitude;pressure_sealevel;temperature;humidity
14612;BME280;7392;52.078;11.650;2023-12-07T00:00:38;100980.22;;;-0.13;100.00
14612;BME280;7392;52.078;11.650;2023-12-07T00:03:06;100978.41;;;-0.14;100.00
14612;BME280;7392;52.078;11.650;2023-12-07T00:05:34;100987.22;;;-0.12;100.00
14612;BME280;7392;52.078;11.650;2023-12-07T00:08:02;100986.31;;;-0.13;100.00
14612;BME280;7392;52.078;11.650;2023-12-07T00:10:31;100987.13;;;-0.14;100.00
14612;BME280;7392;52.078;11.650;2023-12-07T00:12:59;100989.81;;;-0.12;100.00
14612;BME280;7392;52.078;11.650;2023-12-07T00:15:27;100984.59;;;-0.12;100.00
14612;BME280;7392;52.078;11.650;2023-12-07T00:17:55;100992.44;;;-0.12;100.00
14612;BME280;7392;52.078;11.650;2023-12-07T00:20:23;100998.56;;;-0.12;100.00
14612;BME280;7392;52.078;11.650;2023-12-07T00:22:51;101004.69;;;-0.11;100.00
14612;BME280;7392;52.078;11.650;2023-12-07T00:25:19;100995.97;;;-0.12;100.00
14612;BME280;7392;52.078;11.650;2023-12-07T00:27:48;101005.50;;;-0.12;100.00
14612;BME280;7392;52.078;11.650;2023-12-07T00:30:16;101008.09;;;-0.12;100.00
14612;BME280;7392;52.078;11.650;2023-12-07T00:32:44;101009.91;;;-0.11;100.00
14612;BME280;7392;52.078;11.650;2023-12-07T00:35:13;100995.97;;;-0.12;100.00
14612;BME280;7392;52.078;11.650;2023-12-07T00:37:41;101000.28;;;-0.12;100.00
14612;BME280;7392;52.078;11.650;2023-12-07T00:40:09;101004.69;;;-0.11;100.00
14612;BME280;7392;52.078;11.650;2023-12-07T00:42:39;101008.09;;;-0.12;100.00
14612;BME280;7392;52.078;11.650;2023-12-07T00:45:11;101004.59;;;-0.13;100.00
14612;BME280;7392;52.078;11.650;2023-12-07T00:47:39;101008.09;;;-0.12;100.00
14612;BME280;7392;52.078;11.650;2023-12-07T00:50:08;101002.88;;;-0.12;100.00
14612;BME280;7392;52.078;11.650;2023-12-07T00:52:36;101011.63;;;-0.12;100.00
14612;BME280;7392;52.078;11.650;2023-12-07T00:55:05;101022.06;;;-0.12;100.00
14612;BME280;7392;52.078;11.650;2023-12-07T00:57:38;101022.06;;;-0.12;100.00
14612;BME280;7392;52.078;11.650;2023-12-07T01:00:06;101022.06;;;-0.12;100.00
14612;BME280;7392;52.078;11.650;2023-12-07T01:02:36;101029.91;;;-0.12;100.00
14612;BME280;7392;52.078;11.650;2023-12-07T01:05:04;101032.53;;;-0.12;100.00
14612;BME280;7392;52.078;11.650;2023-12-07T01:07:33;101036.81;;;-0.12;100.00
14612;BME280;7392;52.078;11.650;2023-12-07T01:10:01;101033.41;;;-0.11;100.00
14612;BME280;7392;52.078;11.650;2023-12-07T01:12:29;101032.53;;;-0.12;100.00
14612;BME280;7392;52.078;11.650;2023-12-07T01:14:57;101044.75;;;-0.11;100.00
14612;BME280;7392;52.078;11.650;2023-12-07T01:17:25;101047.34;;;-0.11;100.00
14612;BME280;7392;52.078;11.650;2023-12-07T01:19:54;101047.34;;;-0.11;100.00
14612;BME280;7392;52.078;11.650;2023-12-07T01:22:22;101047.34;;;-0.11;100.00
14612;BME280;7392;52.078;11.650;2023-12-07T01:24:50;101054.38;;;-0.10;100.00
14612;BME280;7392;52.078;11.650;2023-12-07T01:27:18;101050.84;;;-0.10;100.00
14612;BME280;7392;52.078;11.650;2023-12-07T01:29:47;101063.91;;;-0.10;100.00
14612;BME280;7392;52.078;11.650;2023-12-07T01:32:15;101063.09;;;-0.09;100.00
14612;BME280;7392;52.078;11.650;2023-12-07T01:34:44;101057.88;;;-0.09;100.00
14612;BME280;7392;52.078;11.650;2023-12-07T01:37:14;101060.47;;;-0.09;100.00
14612;BME280;7392;52.078;11.650;2023-12-07T01:39:42;101063.09;;;-0.09;100.00
14612;BME280;7392;52.078;11.650;2023-12-07T01:42:11;101059.66;;;-0.08;100.00
14612;BME280;7392;52.078;11.650;2023-12-07T01:44:39;101062.28;;;-0.08;100.00
14612;BME280;7392;52.078;11.650;2023-12-07T01:47:07;101071.00;;;-0.08;100.00
14612;BME280;7392;52.078;11.650;2023-12-07T01:49:37;101068.38;;;-0.08;100.00
14612;BME280;7392;52.078;11.650;2023-12-07T01:52:06;101073.63;;;-0.08;100.00
14612;BME280;7392;52.078;11.650;2023-12-07T01:54:37;101070.13;;;-0.08;100.00
14612;BME280;7392;52.078;11.650;2023-12-07T01:57:05;101079.72;;;-0.07;100.00
14612;BME280;7392;52.078;11.650;2023-12-07T01:59:34;101080.63;;;-0.07;100.00
14612;BME280;7392;52.078;11.650;2023-12-07T02:02:02;101083.25;;;-0.07;100.00
14612;BME280;7392;52.078;11.650;2023-12-07T02:04:30;101086.75;;;-0.06;100.00
14612;BME280;7392;52.078;11.650;2023-12-07T02:07:00;101083.25;;;-0.07;100.00
14612;BME280;7392;52.078;11.650;2023-12-07T02:09:29;101086.81;;;-0.05;100.00
14612;BME280;7392;52.078;11.650;2023-12-07T02:12:00;101083.28;;;-0.05;100.00
14612;BME280;7392;52.078;11.650;2023-12-07T02:14:28;101090.31;;;-0.04;100.00
14612;BME280;7392;52.078;11.650;2023-12-07T02:17:01;101085.16;;;-0.03;100.00
14612;BME280;7392;52.078;11.650;2023-12-07T02:19:55;101085.16;;;-0.03;100.00
14612;BME280;7392;52.078;11.650;2023-12-07T02:22:27;101089.50;;;-0.03;100.00
14612;BME280;7392;52.078;11.650;2023-12-07T02:25:04;101090.38;;;-0.03;100.00
14612;BME280;7392;52.078;11.650;2023-12-07T02:27:39;101089.50;;;-0.03;100.00
14612;BME280;7392;52.078;11.650;2023-12-07T02:30:08;101089.59;;;-0.02;100.00
14612;BME280;7392;52.078;11.650;2023-12-07T02:32:37;101088.66;;;-0.02;100.00
14612;BME280;7392;52.078;11.650;2023-12-07T02:35:06;101100.84;;;-0.03;100.00
14612;BME280;7392;52.078;11.650;2023-12-07T02:37:39;101097.41;;;-0.02;100.00
14612;BME280;7392;52.078;11.650;2023-12-07T02:40:09;101108.66;;;-0.03;100.00
14612;BME280;7392;52.078;11.650;2023-12-07T02:42:39;101105.25;;;-0.02;100.00
14612;BME280;7392;52.078;11.650;2023-12-07T02:45:10;101111.34;;;-0.01;100.00
14612;BME280;7392;52.078;11.650;2023-12-07T02:47:38;101119.13;;;-0.03;100.00
14612;BME280;7392;52.078;11.650;2023-12-07T02:50:08;101107.78;;;-0.03;100.00
14612;BME280;7392;52.078;11.650;2023-12-07T02:52:36;101120.84;;;-0.03;100.00
14612;BME280;7392;52.078;11.650;2023-12-07T02:55:04;101112.09;;;-0.04;100.00
14612;BME280;7392;52.078;11.650;2023-12-07T02:57:33;101118.22;;;-0.03;100.00
14612;BME280;7392;52.078;11.650;2023-12-07T03:00:03;101116.44;;;-0.04;100.00
14612;BME280;7392;52.078;11.650;2023-12-07T03:02:33;101119.94;;;-0.04;100.00
14612;BME280;7392;52.078;11.650;2023-12-07T03:05:02;101119.03;;;-0.04;100.00
14612;BME280;7392;52.078;11.650;2023-12-07T03:07:30;101119.03;;;-0.04;100.00
14612;BME280;7392;52.078;11.650;2023-12-07T03:09:58;101123.31;;;-0.06;100.00
14612;BME280;7392;52.078;11.650;2023-12-07T03:12:25;101122.47;;;-0.05;100.00
14612;BME280;7392;52.078;11.650;2023-12-07T03:14:53;101125.94;;;-0.06;100.00
14612;BME280;7392;52.078;11.650;2023-12-07T03:17:22;101125.03;;;-0.07;100.00
14612;BME280;7392;52.078;11.650;2023-12-07T03:19:50;101127.69;;;-0.05;100.00
14612;BME280;7392;52.078;11.650;2023-12-07T03:22:18;101132.88;;;-0.07;100.00
14612;BME280;7392;52.078;11.650;2023-12-07T03:24:51;101131.06;;;-0.08;100.00
14612;BME280;7392;52.078;11.650;2023-12-07T03:27:19;101132.78;;;-0.08;100.00
14612;BME280;7392;52.078;11.650;2023-12-07T03:29:47;101139.78;;;-0.07;100.00
14612;BME280;7392;52.078;11.650;2023-12-07T03:32:15;101134.50;;;-0.09;100.00
14612;BME280;7392;52.078;11.650;2023-12-07T03:34:44;101139.72;;;-0.09;100.00
14612;BME280;7392;52.078;11.650;2023-12-07T03:37:12;101139.72;;;-0.09;100.00
14612;BME280;7392;52.078;11.650;2023-12-07T03:39:40;101144.06;;;-0.09;100.00
14612;BME280;7392;52.078;11.650;2023-12-07T03:42:08;101138.03;;;-0.08;100.00
14612;BME280;7392;52.078;11.650;2023-12-07T03:44:56;101146.66;;;-0.09;100.00
14612;BME280;7392;52.078;11.650;2023-12-07T03:47:24;101151.88;;;-0.09;100.00
14612;BME280;7392;52.078;11.650;2023-12-07T03:49:53;101146.66;;;-0.09;100.00
14612;BME280;7392;52.078;11.650;2023-12-07T03:52:21;101153.63;;;-0.10;100.00
14612;BME280;7392;52.078;11.650;2023-12-07T03:54:50;101146.59;;;-0.11;100.00
14612;BME280;7392;52.078;11.650;2023-12-07T03:57:17;101153.63;;;-0.10;100.00
14612;BME280;7392;52.078;11.650;2023-12-07T03:59:45;101149.28;;;-0.09;100.00
14612;BME280;7392;52.078;11.650;2023-12-07T04:02:13;101157.03;;;-0.11;100.00
14612;BME280;7392;52.078;11.650;2023-12-07T04:04:41;101164.94;;;-0.09;100.00
14612;BME280;7392;52.078;11.650;2023-12-07T04:07:10;101164.06;;;-0.10;100.00
14612;BME280;7392;52.078;11.650;2023-12-07T04:09:39;101153.63;;;-0.10;100.00
14612;BME280;7392;52.078;11.650;2023-12-07T04:12:07;101153.63;;;-0.10;100.00
14612;BME280;7392;52.078;11.650;2023-12-07T04:14:34;101155.38;;;-0.09;100.00
14612;BME280;7392;52.078;11.650;2023-12-07T04:17:02;101162.25;;;-0.11;100.00
14612;BME280;7392;52.078;11.650;2023-12-07T04:19:30;101161.44;;;-0.10;100.00
14612;BME280;7392;52.078;11.650;2023-12-07T04:21:58;101165.75;;;-0.10;100.00
14612;BME280;7392;52.078;11.650;2023-12-07T04:24:28;101169.28;;;-0.10;100.00
14612;BME280;7392;52.078;11.650;2023-12-07T04:26:55;101169.28;;;-0.10;100.00
14612;BME280;7392;52.078;11.650;2023-12-07T04:29:23;101163.97;;;-0.11;100.00
14612;BME280;7392;52.078;11.650;2023-12-07T04:31:51;101164.06;;;-0.10;100.00
14612;BME280;7392;52.078;11.650;2023-12-07T04:34:19;101170.16;;;-0.09;100.00
14612;BME280;7392;52.078;11.650;2023-12-07T04:36:47;101170.09;;;-0.11;100.00
14612;BME280;7392;52.078;11.650;2023-12-07T04:39:15;101170.09;;;-0.11;100.00
14612;BME280;7392;52.078;11.650;2023-12-07T04:41:44;101182.34;;;-0.10;100.00
14612;BME280;7392;52.078;11.650;2023-12-07T04:44:13;101176.19;;;-0.10;100.00
14612;BME280;7392;52.078;11.650;2023-12-07T04:46:41;101177.13;;;-0.10;100.00
14612;BME280;7392;52.078;11.650;2023-12-07T04:49:09;101180.53;;;-0.11;100.00
14612;BME280;7392;52.078;11.650;2023-12-07T04:51:38;101178.88;;;-0.09;100.00
14612;BME280;7392;52.078;11.650;2023-12-07T04:54:06;101176.19;;;-0.10;100.00
14612;BME280;7392;52.078;11.650;2023-12-07T04:56:46;101186.66;;;-0.10;100.00
14612;BME280;7392;52.078;11.650;2023-12-07T04:59:14;101182.34;;;-0.10;100.00
14612;BME280;7392;52.078;11.650;2023-12-07T05:01:42;101183.16;;;-0.11;100.00
14612;BME280;7392;52.078;11.650;2023-12-07T05:04:10;101177.13;;;-0.10;100.00
14612;BME280;7392;52.078;11.650;2023-12-07T05:06:38;101190.19;;;-0.10;100.00
14612;BME280;7392;52.078;11.650;2023-12-07T05:09:06;101189.25;;;-0.10;100.00
14612;BME280;7392;52.078;11.650;2023-12-07T05:11:36;101187.50;;;-0.11;100.00
14612;BME280;7392;52.078;11.650;2023-12-07T05:14:06;101195.41;;;-0.10;100.00
14612;BME280;7392;52.078;11.650;2023-12-07T05:16:35;101191.88;;;-0.10;100.00
14612;BME280;7392;52.078;11.650;2023-12-07T05:19:03;101203.25;;;-0.10;100.00
14612;BME280;7392;52.078;11.650;2023-12-07T05:21:31;101198.91;;;-0.09;100.00
14612;BME280;7392;52.078;11.650;2023-12-07T05:23:59;101198.00;;;-0.10;100.00
14612;BME280;7392;52.078;11.650;2023-12-07T05:26:27;101200.63;;;-0.10;100.00
14612;BME280;7392;52.078;11.650;2023-12-07T05:28:56;101202.41;;;-0.09;100.00
14612;BME280;7392;52.078;11.650;2023-12-07T05:31:26;101205.00;;;-0.09;100.00
14612;BME280;7392;52.078;11.650;2023-12-07T05:33:55;101198.91;;;-0.09;100.00
14612;BME280;7392;52.078;11.650;2023-12-07T05:36:24;101199.78;;;-0.09;100.00
14612;BME280;7392;52.078;11.650;2023-12-07T05:38:53;101205.09;;;-0.07;100.00
14612;BME280;7392;52.078;11.650;2023-12-07T05:41:21;101203.38;;;-0.07;100.00
14612;BME280;7392;52.078;11.650;2023-12-07T05:43:49;101200.78;;;-0.07;100.00
14612;BME280;7392;52.078;11.650;2023-12-07T05:46:18;101205.16;;;-0.06;100.00
14612;BME280;7392;52.078;11.650;2023-12-07T05:48:47;101200.00;;;-0.04;100.00
14612;BME280;7392;52.078;11.650;2023-12-07T05:51:16;101204.34;;;-0.05;100.00
14612;BME280;7392;52.078;11.650;2023-12-07T05:53:46;101200.91;;;-0.04;100.00
14612;BME280;7392;52.078;11.650;2023-12-07T05:56:18;101206.13;;;-0.04;100.00
14612;BME280;7392;52.078;11.650;2023-12-07T05:58:46;101211.34;;;-0.04;100.00
14612;BME280;7392;52.078;11.650;2023-12-07T06:01:16;101207.03;;;-0.03;100.00
14612;BME280;7392;52.078;11.650;2023-12-07T06:03:46;101211.34;;;-0.04;100.00
14612;BME280;7392;52.078;11.650;2023-12-07T06:06:14;101215.75;;;-0.03;100.00
14612;BME280;7392;52.078;11.650;2023-12-07T06:08:42;101207.03;;;-0.03;100.00
14612;BME280;7392;52.078;11.650;2023-12-07T06:11:11;101206.13;;;-0.04;100.00
14612;BME280;7392;52.078;11.650;2023-12-07T06:13:39;101207.03;;;-0.03;100.00
14612;BME280;7392;52.078;11.650;2023-12-07T06:16:07;101206.13;;;-0.04;100.00
14612;BME280;7392;52.078;11.650;2023-12-07T06:18:38;101213.06;;;-0.04;100.00
14612;BME280;7392;52.078;11.650;2023-12-07T06:21:08;101221.88;;;-0.02;100.00
14612;BME280;7392;52.078;11.650;2023-12-07T06:23:36;101219.19;;;-0.04;100.00
14612;BME280;7392;52.078;11.650;2023-12-07T06:26:04;101220.09;;;-0.03;100.00
14612;BME280;7392;52.078;11.650;2023-12-07T06:28:32;101222.72;;;-0.03;100.00
14612;BME280;7392;52.078;11.650;2023-12-07T06:31:05;101210.53;;;-0.03;100.00
14612;BME280;7392;52.078;11.650;2023-12-07T06:33:34;101221.88;;;-0.02;100.00
14612;BME280;7392;52.078;11.650;2023-12-07T06:36:02;101234.03;;;-0.03;100.00
14612;BME280;7392;52.078;11.650;2023-12-07T06:38:32;101228.00;;;-0.02;100.00
14612;BME280;7392;52.078;11.650;2023-12-07T06:41:00;101221.88;;;-0.02;100.00
14612;BME280;7392;52.078;11.650;2023-12-07T06:43:28;101228.00;;;-0.02;100.00
14612;BME280;7392;52.078;11.650;2023-12-07T06:45:56;101229.78;;;-0.01;100.00
14612;BME280;7392;52.078;11.650;2023-12-07T06:48:24;101236.81;;;0.01;100.00
14612;BME280;7392;52.078;11.650;2023-12-07T06:50:52;101235.09;;;0.01;100.00
14612;BME280;7392;52.078;11.650;2023-12-07T06:53:19;101241.19;;;0.02;100.00
14612;BME280;7392;52.078;11.650;2023-12-07T06:55:49;101237.78;;;0.03;100.00
14612;BME280;7392;52.078;11.650;2023-12-07T06:58:17;101233.34;;;0.02;100.00
14612;BME280;7392;52.078;11.650;2023-12-07T07:00:46;101246.41;;;0.02;100.00
14612;BME280;7392;52.078;11.650;2023-12-07T07:03:14;101236.91;;;0.02;100.00
14612;BME280;7392;52.078;11.650;2023-12-07T07:05:42;101249.03;;;0.02;100.00
14612;BME280;7392;52.078;11.650;2023-12-07T07:08:10;101250.75;;;0.01;100.00
14612;BME280;7392;52.078;11.650;2023-12-07T07:10:38;101242.91;;;0.01;100.00
14612;BME280;7392;52.078;11.650;2023-12-07T07:13:07;101249.88;;;0.01;100.00
14612;BME280;7392;52.078;11.650;2023-12-07T07:15:35;101249.88;;;0.01;100.00
14612;BME280;7392;52.078;11.650;2023-12-07T07:18:03;101257.72;;;0.01;100.00
14612;BME280;7392;52.078;11.650;2023-12-07T07:20:32;101257.78;;;0.02;100.00
14612;BME280;7392;52.078;11.650;2023-12-07T07:23:00;101261.22;;;0.01;100.00
14612;BME280;7392;52.078;11.650;2023-12-07T07:25:28;101266.44;;;0.01;100.00
14612;BME280;7392;52.078;11.650;2023-12-07T07:27:56;101267.28;;;0.00;100.00
14612;BME280;7392;52.078;11.650;2023-12-07T07:30:25;101274.19;;;-0.01;100.00
14612;BME280;7392;52.078;11.650;2023-12-07T07:32:54;101276.81;;;-0.01;100.00
14612;BME280;7392;52.078;11.650;2023-12-07T07:35:22;101273.38;;;0.01;100.00
14612;BME280;7392;52.078;11.650;2023-12-07T07:37:50;101279.41;;;-0.01;100.00
14612;BME280;7392;52.078;11.650;2023-12-07T07:40:18;101281.22;;;0.01;100.00
14612;BME280;7392;52.078;11.650;2023-12-07T07:42:46;101285.59;;;0.02;100.00
14612;BME280;7392;52.078;11.650;2023-12-07T07:45:14;101283.84;;;0.01;100.00
14612;BME280;7392;52.078;11.650;2023-12-07T07:47:44;101284.72;;;0.01;100.00
14612;BME280;7392;52.078;11.650;2023-12-07T07:50:12;101288.22;;;0.02;100.00
14612;BME280;7392;52.078;11.650;2023-12-07T07:52:40;101286.53;;;0.02;100.00
14612;BME280;7392;52.078;11.650;2023-12-07T07:55:09;101286.53;;;0.02;100.00
14612;BME280;7392;52.078;11.650;2023-12-07T07:57:37;101276.97;;;0.03;100.00
14612;BME280;7392;52.078;11.650;2023-12-07T08:00:06;101283.91;;;0.02;100.00
14612;BME280;7392;52.078;11.650;2023-12-07T08:02:35;101278.69;;;0.02;100.00
14612;BME280;7392;52.078;11.650;2023-12-07T08:05:05;101283.06;;;0.03;100.00
14612;BME280;7392;52.078;11.650;2023-12-07T08:07:33;101284.88;;;0.04;100.00
14612;BME280;7392;52.078;11.650;2023-12-07T08:10:01;101279.66;;;0.04;100.00
14612;BME280;7392;52.078;11.650;2023-12-07T08:12:30;101290.09;;;0.04;100.00
14612;BME280;7392;52.078;11.650;2023-12-07T08:14:58;101287.50;;;0.04;100.00
14612;BME280;7392;52.078;11.650;2023-12-07T08:17:26;101292.78;;;0.06;100.00
14612;BME280;7392;52.078;11.650;2023-12-07T08:19:54;101296.28;;;0.06;100.00
14612;BME280;7392;52.078;11.650;2023-12-07T08:22:25;101293.69;;;0.06;100.00
14612;BME280;7392;52.078;11.650;2023-12-07T08:24:53;101292.88;;;0.07;100.00
14612;BME280;7392;52.078;11.650;2023-12-07T08:27:34;101300.72;;;0.07;100.00
14612;BME280;7392;52.078;11.650;2023-12-07T08:30:02;101305.09;;;0.08;100.00
14612;BME280;7392;52.078;11.650;2023-12-07T08:32:30;101305.16;;;0.10;100.00
14612;BME280;7392;52.078;11.650;2023-12-07T08:34:59;101311.31;;;0.10;100.00
14612;BME280;7392;52.078;11.650;2023-12-07T08:37:28;101308.75;;;0.12;100.00
14612;BME280;7392;52.078;11.650;2023-12-07T08:39:56;101314.88;;;0.12;100.00
14612;BME280;7392;52.078;11.650;2023-12-07T08:42:24;101311.34;;;0.12;100.00
14612;BME280;7392;52.078;11.650;2023-12-07T08:44:53;101314.13;;;0.15;100.00
14612;BME280;7392;52.078;11.650;2023-12-07T08:47:21;101315.06;;;0.15;100.00
14612;BME280;7392;52.078;11.650;2023-12-07T08:49:49;101316.00;;;0.17;100.00
14612;BME280;7392;52.078;11.650;2023-12-07T08:52:18;101319.59;;;0.20;100.00
14612;BME280;7392;52.078;11.650;2023-12-07T08:55:06;101324.91;;;0.21;100.00
14612;BME280;7392;52.078;11.650;2023-12-07T08:57:34;101318.81;;;0.22;100.00
14612;BME280;7392;52.078;11.650;2023-12-07T09:00:03;101326.81;;;0.25;100.00
14612;BME280;7392;52.078;11.650;2023-12-07T09:02:31;101319.94;;;0.27;100.00
14612;BME280;7392;52.078;11.650;2023-12-07T09:05:12;101325.25;;;0.29;100.00
14612;BME280;7392;52.078;11.650;2023-12-07T09:07:40;101317.50;;;0.30;100.00
14612;BME280;7392;52.078;11.650;2023-12-07T09:10:10;101318.44;;;0.32;100.00
14612;BME280;7392;52.078;11.650;2023-12-07T09:12:38;101313.22;;;0.32;100.00
14612;BME280;7392;52.078;11.650;2023-12-07T09:15:07;101320.34;;;0.35;100.00
14612;BME280;7392;52.078;11.650;2023-12-07T09:17:37;101322.13;;;0.36;100.00
14612;BME280;7392;52.078;11.650;2023-12-07T09:20:07;101324.00;;;0.39;100.00
14612;BME280;7392;52.078;11.650;2023-12-07T09:22:40;101317.03;;;0.39;100.00
14612;BME280;7392;52.078;11.650;2023-12-07T09:25:10;101325.88;;;0.41;100.00
14612;BME280;7392;52.078;11.650;2023-12-07T09:27:39;101329.38;;;0.42;100.00
14612;BME280;7392;52.078;11.650;2023-12-07T09:30:08;101334.75;;;0.45;100.00
14612;BME280;7392;52.078;11.650;2023-12-07T09:32:38;101341.75;;;0.46;100.00
14612;BME280;7392;52.078;11.650;2023-12-07T09:35:08;101343.56;;;0.47;100.00
14612;BME280;7392;52.078;11.650;2023-12-07T09:37:42;101342.72;;;0.48;100.00
14612;BME280;7392;52.078;11.650;2023-12-07T09:40:16;101337.56;;;0.49;100.00
14612;BME280;7392;52.078;11.650;2023-12-07T09:42:45;101337.66;;;0.51;100.00
14612;BME280;7392;52.078;11.650;2023-12-07T09:45:14;101342.06;;;0.52;100.00
14612;BME280;7392;52.078;11.650;2023-12-07T09:47:47;101332.56;;;0.54;100.00
14612;BME280;7392;52.078;11.650;2023-12-07T09:50:16;101335.34;;;0.57;100.00
14612;BME280;7392;52.078;11.650;2023-12-07T09:52:47;101331.94;;;0.60;100.00
14612;BME280;7392;52.078;11.650;2023-12-07T09:55:31;101335.59;;;0.63;100.00
14612;BME280;7392;52.078;11.650;2023-12-07T09:58:00;101326.94;;;0.64;100.00
14612;BME280;7392;52.078;11.650;2023-12-07T10:00:28;101329.72;;;0.67;100.00
14612;BME280;7392;52.078;11.650;2023-12-07T10:02:56;101334.19;;;0.70;100.00
14612;BME280;7392;52.078;11.650;2023-12-07T10:05:25;101339.56;;;0.73;100.00
14612;BME280;7392;52.078;11.650;2023-12-07T10:07:53;101337.03;;;0.74;100.00
14612;BME280;7392;52.078;11.650;2023-12-07T10:10:21;101328.44;;;0.77;100.00
14612;BME280;7392;52.078;11.650;2023-12-07T10:12:52;101326.78;;;0.79;100.00
14612;BME280;7392;52.078;11.650;2023-12-07T10:15:22;101325.19;;;0.83;100.00
14612;BME280;7392;52.078;11.650;2023-12-07T10:17:54;101320.94;;;0.85;100.00
14612;BME280;7392;52.078;11.650;2023-12-07T10:20:24;101321.16;;;0.89;100.00
14612;BME280;7392;52.078;11.650;2023-12-07T10:23:04;101315.16;;;0.92;100.00
14612;BME280;7392;52.078;11.650;2023-12-07T10:25:37;101319.66;;;0.95;100.00
14612;BME280;7392;52.078;11.650;2023-12-07T10:28:07;101313.56;;;0.96;100.00
14612;BME280;7392;52.078;11.650;2023-12-07T10:30:35;101324.19;;;0.99;100.00
14612;BME280;7392;52.078;11.650;2023-12-07T10:33:06;101317.38;;;1.02;100.00
14612;BME280;7392;52.078;11.650;2023-12-07T10:35:38;101312.13;;;1.02;100.00
14612;BME280;7392;52.078;11.650;2023-12-07T10:38:06;101316.69;;;1.06;100.00
14612;BME280;7392;52.078;11.650;2023-12-07T10:40:34;101314.22;;;1.09;100.00
14612;BME280;7392;52.078;11.650;2023-12-07T10:43:05;101310.84;;;1.12;100.00
14612;BME280;7392;52.078;11.650;2023-12-07T10:45:35;101312.72;;;1.15;100.00
14612;BME280;7392;52.078;11.650;2023-12-07T10:48:06;101318.97;;;1.18;100.00
14612;BME280;7392;52.078;11.650;2023-12-07T10:50:36;101305.13;;;1.21;100.00
14612;BME280;7392;52.078;11.650;2023-12-07T10:53:09;101314.91;;;1.25;100.00
14612;BME280;7392;52.078;11.650;2023-12-07T10:55:42;101303.66;;;1.27;100.00
14612;BME280;7392;52.078;11.650;2023-12-07T10:58:13;101316.13;;;1.33;100.00
14612;BME280;7392;52.078;11.650;2023-12-07T11:00:44;101315.31;;;1.34;100.00
14612;BME280;7392;52.078;11.650;2023-12-07T11:03:15;101306.66;;;1.35;100.00
14612;BME280;7392;52.078;11.650;2023-12-07T11:05:46;101312.84;;;1.37;100.00
14612;BME280;7392;52.078;11.650;2023-12-07T11:08:21;101308.56;;;1.39;100.00
14612;BME280;7392;52.078;11.650;2023-12-07T11:11:00;101307.75;;;1.40;100.00
14612;BME280;7392;52.078;11.650;2023-12-07T11:13:32;101321.72;;;1.41;100.00
14612;BME280;7392;52.078;11.650;2023-12-07T11:16:02;101312.13;;;1.41;100.00
14612;BME280;7392;52.078;11.650;2023-12-07T11:18:30;101309.59;;;1.43;100.00
14612;BME280;7392;52.078;11.650;2023-12-07T11:21:00;101313.16;;;1.45;100.00
14612;BME280;7392;52.078;11.650;2023-12-07T11:23:28;101303.59;;;1.45;100.00
14612;BME280;7392;52.078;11.650;2023-12-07T11:25:56;101304.56;;;1.47;100.00
14612;BME280;7392;52.078;11.650;2023-12-07T11:28:35;101305.59;;;1.51;100.00
14612;BME280;7392;52.078;11.650;2023-12-07T11:31:06;101304.78;;;1.52;100.00
14612;BME280;7392;52.078;11.650;2023-12-07T11:33:37;101298.75;;;1.55;100.00
14612;BME280;7392;52.078;11.650;2023-12-07T11:36:07;101291.03;;;1.58;100.00
14612;BME280;7392;52.078;11.650;2023-12-07T11:38:36;101291.09;;;1.59;100.00
14612;BME280;7392;52.078;11.650;2023-12-07T11:41:05;101288.63;;;1.62;100.00
14612;BME280;7392;52.078;11.650;2023-12-07T11:43:37;101285.16;;;1.63;100.00
14612;BME280;7392;52.078;11.650;2023-12-07T11:46:07;101294.88;;;1.66;100.00
14612;BME280;7392;52.078;11.650;2023-12-07T11:48:36;101289.72;;;1.67;100.00
14612;BME280;7392;52.078;11.650;2023-12-07T11:51:05;101297.56;;;1.67;100.00
14612;BME280;7392;52.078;11.650;2023-12-07T11:53:36;101290.59;;;1.68;100.00
14612;BME280;7392;52.078;11.650;2023-12-07T11:56:06;101295.84;;;1.68;100.00
14612;BME280;7392;52.078;11.650;2023-12-07T11:58:34;101297.59;;;1.69;100.00
14612;BME280;7392;52.078;11.650;2023-12-07T12:01:08;101295.91;;;1.70;100.00
14612;BME280;7392;52.078;11.650;2023-12-07T12:03:37;101290.72;;;1.71;100.00
14612;BME280;7392;52.078;11.650;2023-12-07T12:06:06;101290.72;;;1.71;100.00
14612;BME280;7392;52.078;11.650;2023-12-07T12:08:39;101294.16;;;1.70;100.00
14612;BME280;7392;52.078;11.650;2023-12-07T12:11:08;101291.63;;;1.72;100.00
14612;BME280;7392;52.078;11.650;2023-12-07T12:13:36;101291.69;;;1.73;100.00
14612;BME280;7392;52.078;11.650;2023-12-07T12:16:06;101286.44;;;1.73;100.00
14612;BME280;7392;52.078;11.650;2023-12-07T12:18:36;101284.72;;;1.74;100.00
14612;BME280;7392;52.078;11.650;2023-12-07T12:21:07;101282.97;;;1.74;100.00
14612;BME280;7392;52.078;11.650;2023-12-07T12:23:35;101284.72;;;1.74;100.00
14612;BME280;7392;52.078;11.650;2023-12-07T12:26:05;101277.75;;;1.74;100.00
14612;BME280;7392;52.078;11.650;2023-12-07T12:28:34;101277.81;;;1.76;100.00
14612;BME280;7392;52.078;11.650;2023-12-07T12:31:08;101286.53;;;1.75;100.00
14612;BME280;7392;52.078;11.650;2023-12-07T12:33:39;101281.28;;;1.75;100.00
14612;BME280;7392;52.078;11.650;2023-12-07T12:36:08;101289.06;;;1.73;100.00
14612;BME280;7392;52.078;11.650;2023-12-07T12:38:38;101284.72;;;1.74;100.00
14612;BME280;7392;52.078;11.650;2023-12-07T12:41:10;101289.94;;;1.74;100.00
14612;BME280;7392;52.078;11.650;2023-12-07T12:43:39;101284.72;;;1.74;100.00
14612;BME280;7392;52.078;11.650;2023-12-07T12:46:07;101280.34;;;1.74;100.00
14612;BME280;7392;52.078;11.650;2023-12-07T12:48:52;101282.97;;;1.74;100.00
14612;BME280;7392;52.078;11.650;2023-12-07T12:51:23;101276.84;;;1.74;100.00
14612;BME280;7392;52.078;11.650;2023-12-07T12:53:52;101272.50;;;1.74;100.00
14612;BME280;7392;52.078;11.650;2023-12-07T12:56:21;101278.66;;;1.75;100.00